Time;durP1;ratioP1;P1;durP2;ratioP2;P2;SDS_P1;SDS_P2;PMS_P1;PMS_P2;Temp;Humidity;BMP_temperature;BMP_pressure;BME280_temperature;BME280_humidity;BME280_pressure;Samples;Min_cycle;Max_cycle;Signal;HPM_P1;HPM_P2
2022/04/29 00:00:45;;;;;;;5.88;5.38;;;7.70;99.90;;;;;;5060340;28;20225;-73
2022/04/29 00:03:12;;;;;;;6.68;5.93;;;7.50;99.90;;;;;;5054154;28;20184;-73
2022/04/29 00:05:42;;;;;;;6.53;5.93;;;7.40;99.90;;;;;;5048747;28;20211;-73
2022/04/29 00:08:09;;;;;;;6.38;5.88;;;7.40;99.90;;;;;;5050883;28;20176;-74
2022/04/29 00:10:35;;;;;;;6.10;5.60;;;7.50;99.90;;;;;;5056283;28;20272;-73
2022/04/29 00:13:03;;;;;;;6.03;5.35;;;7.50;99.90;;;;;;5053955;28;20180;-73
2022/04/29 00:15:29;;;;;;;6.53;5.97;;;7.60;99.90;;;;;;5047795;28;20220;-74
2022/04/29 00:17:56;;;;;;;6.05;5.40;;;7.60;99.90;;;;;;5054881;28;20191;-74
2022/04/29 00:20:22;;;;;;;6.28;5.78;;;7.60;99.90;;;;;;5052897;28;20230;-73
2022/04/29 00:22:47;;;;;;;6.57;5.95;;;7.60;99.90;;;;;;5055533;28;20199;-73
2022/04/29 00:25:13;;;;;;;6.68;5.72;;;7.60;99.90;;;;;;5043513;28;20627;-73
2022/04/29 00:27:40;;;;;;;6.68;6.07;;;7.60;99.90;;;;;;5053968;28;20175;-73
2022/04/29 00:30:11;;;;;;;6.38;5.78;;;7.50;99.90;;;;;;5052477;28;20176;-73
2022/04/29 00:32:38;;;;;;;6.38;5.82;;;7.50;99.90;;;;;;5056662;28;20721;-73
2022/04/29 00:35:05;;;;;;;6.10;5.60;;;7.50;99.90;;;;;;5047000;28;20203;-73
2022/04/29 00:37:31;;;;;;;6.10;5.60;;;7.40;99.90;;;;;;5041480;28;20525;-73
2022/04/29 00:39:58;;;;;;;7.30;5.93;;;7.40;99.90;;;;;;5055757;28;20186;-73
2022/04/29 00:42:24;;;;;;;6.75;6.18;;;7.40;99.90;;;;;;5050424;28;20191;-73
2022/04/29 00:44:50;;;;;;;7.07;6.50;;;7.40;99.90;;;;;;5050733;28;21316;-73
2022/04/29 00:47:19;;;;;;;6.13;5.50;;;7.30;99.90;;;;;;5057073;28;20674;-74
2022/04/29 00:49:46;;;;;;;6.20;5.80;;;7.30;99.90;;;;;;5051038;28;20228;-73
2022/04/29 00:52:15;;;;;;;6.32;5.68;;;7.20;99.90;;;;;;5046727;28;20689;-74
2022/04/29 00:54:45;;;;;;;6.43;5.82;;;7.10;99.90;;;;;;5048835;28;20190;-74
2022/04/29 00:57:15;;;;;;;6.35;5.80;;;7.00;99.90;;;;;;5056326;28;20195;-73
2022/04/29 00:59:57;;;;;;;5.75;5.35;;;6.90;99.90;;;;;;5058299;28;20171;-73
2022/04/29 01:02:23;;;;;;;6.87;6.17;;;6.90;99.90;;;;;;5052070;28;20184;-73
2022/04/29 01:04:55;;;;;;;6.63;6.03;;;7.00;99.90;;;;;;5052968;28;20286;-73
2022/04/29 01:07:22;;;;;;;7.27;6.67;;;6.90;99.90;;;;;;5054984;28;20179;-73
2022/04/29 01:09:48;;;;;;;7.03;6.43;;;6.70;99.90;;;;;;5055996;28;20167;-73
2022/04/29 01:12:14;;;;;;;6.27;5.73;;;6.60;99.90;;;;;;5047585;28;20278;-73
2022/04/29 01:14:40;;;;;;;9.07;6.03;;;6.50;99.90;;;;;;5054209;28;20182;-73
2022/04/29 01:17:06;;;;;;;6.53;5.77;;;6.40;99.90;;;;;;5058210;28;20184;-73
2022/04/29 01:19:31;;;;;;;6.40;5.90;;;6.40;99.90;;;;;;5055228;28;20185;-73
2022/04/29 01:22:01;;;;;;;5.97;5.47;;;6.40;99.90;;;;;;5052921;28;20179;-73
2022/04/29 01:24:26;;;;;;;6.70;6.20;;;6.40;99.90;;;;;;5047491;28;20184;-73
2022/04/29 01:26:52;;;;;;;7.00;6.40;;;6.30;99.90;;;;;;5044759;28;20249;-73
2022/04/29 01:29:20;;;;;;;9.63;6.53;;;6.30;99.90;;;;;;5038831;28;20182;-73
2022/04/29 01:31:47;;;;;;;7.63;7.00;;;6.20;99.90;;;;;;5053387;28;20649;-73
2022/04/29 01:34:13;;;;;;;7.27;6.67;;;6.20;99.90;;;;;;5053135;28;20180;-73
2022/04/29 01:36:39;;;;;;;7.03;6.47;;;6.10;99.90;;;;;;5056935;28;20207;-73
2022/04/29 01:39:05;;;;;;;7.30;6.43;;;6.10;99.90;;;;;;5058977;28;20237;-73
2022/04/29 01:41:33;;;;;;;7.13;6.53;;;6.10;99.90;;;;;;5053967;28;20191;-73
2022/04/29 01:43:59;;;;;;;6.77;6.20;;;6.20;99.90;;;;;;5054362;28;20179;-74
2022/04/29 01:46:24;;;;;;;7.20;6.60;;;6.30;99.90;;;;;;5053058;28;20218;-73
2022/04/29 01:48:50;;;;;;;7.40;6.70;;;6.30;99.90;;;;;;5058157;28;20176;-73
2022/04/29 01:51:16;;;;;;;6.87;6.27;;;6.20;99.90;;;;;;5052774;28;20187;-73
2022/04/29 01:53:42;;;;;;;7.40;6.70;;;6.10;99.90;;;;;;5053021;28;20215;-73
2022/04/29 01:56:07;;;;;;;6.73;6.13;;;6.10;99.90;;;;;;5054142;28;20204;-73
2022/04/29 01:58:33;;;;;;;7.73;6.40;;;6.10;99.90;;;;;;5059236;28;20241;-73
2022/04/29 02:00:59;;;;;;;7.23;6.63;;;6.00;99.90;;;;;;5056721;28;20184;-73
2022/04/29 02:03:25;;;;;;;7.63;6.60;;;5.90;99.90;;;;;;5033509;28;20192;-73
2022/04/29 02:05:50;;;;;;;7.10;6.50;;;5.80;99.90;;;;;;5051669;28;20223;-73
2022/04/29 02:08:34;;;;;;;7.20;6.50;;;5.90;99.90;;;;;;5027639;28;20190;-73
2022/04/29 02:11:00;;;;;;;7.00;6.40;;;5.90;99.90;;;;;;5044609;28;20189;-72
2022/04/29 02:13:26;;;;;;;7.73;6.47;;;6.00;99.90;;;;;;5050742;28;20188;-73
2022/04/29 02:15:51;;;;;;;7.60;6.27;;;6.10;99.90;;;;;;5050044;28;20199;-73
2022/04/29 02:18:17;;;;;;;6.67;6.17;;;6.10;99.90;;;;;;5045101;28;20789;-73
2022/04/29 02:20:42;;;;;;;7.00;6.30;;;6.10;99.90;;;;;;5050204;28;20187;-73
2022/04/29 02:23:08;;;;;;;6.70;6.03;;;6.10;99.90;;;;;;5046874;28;20572;-74
2022/04/29 02:25:33;;;;;;;6.63;6.03;;;6.10;99.90;;;;;;5037499;28;20208;-73
2022/04/29 02:27:59;;;;;;;6.17;5.67;;;6.10;99.90;;;;;;5039090;28;20176;-74
2022/04/29 02:30:25;;;;;;;6.80;6.17;;;6.10;99.90;;;;;;5040922;28;20176;-73
2022/04/29 02:32:50;;;;;;;6.40;5.80;;;6.00;99.90;;;;;;5043586;28;20172;-73
2022/04/29 02:35:16;;;;;;;6.30;5.80;;;6.00;99.90;;;;;;5042689;28;20541;-73
2022/04/29 02:37:42;;;;;;;6.90;6.30;;;5.80;99.90;;;;;;5041642;28;20189;-73
2022/04/29 02:40:08;;;;;;;6.90;6.30;;;5.80;99.90;;;;;;5042395;28;20222;-73
2022/04/29 02:42:34;;;;;;;6.87;6.37;;;5.80;99.90;;;;;;5042792;28;20227;-73
2022/04/29 02:44:59;;;;;;;7.13;6.53;;;5.70;99.90;;;;;;5050976;28;20208;-73
2022/04/29 02:47:25;;;;;;;7.13;6.43;;;5.70;99.90;;;;;;5052706;28;20590;-72
2022/04/29 02:49:50;;;;;;;7.70;7.10;;;5.70;99.90;;;;;;5052264;28;20183;-72
2022/04/29 02:52:16;;;;;;;6.27;5.73;;;5.70;99.90;;;;;;5051859;28;20263;-72
2022/04/29 02:54:42;;;;;;;6.50;6.00;;;5.80;99.90;;;;;;5053185;28;20266;-73
2022/04/29 02:57:08;;;;;;;6.83;6.20;;;5.70;99.90;;;;;;5034826;28;20191;-73
2022/04/29 02:59:34;;;;;;;6.57;6.07;;;5.70;99.90;;;;;;5053083;28;20190;-73
2022/04/29 03:02:00;;;;;;;6.87;6.27;;;5.70;99.90;;;;;;5052944;28;20188;-72
2022/04/29 03:04:25;;;;;;;6.13;5.63;;;5.60;99.90;;;;;;5047997;28;20190;-74
2022/04/29 03:06:51;;;;;;;6.90;6.30;;;5.60;99.90;;;;;;5051888;28;20274;-73
2022/04/29 03:09:17;;;;;;;6.93;6.43;;;5.40;99.90;;;;;;5045569;28;20175;-73
2022/04/29 03:11:43;;;;;;;6.30;5.77;;;5.30;99.90;;;;;;5049748;28;20665;-74
2022/04/29 03:14:08;;;;;;;7.27;6.10;;;5.20;99.90;;;;;;5056169;28;20183;-73
2022/04/29 03:16:36;;;;;;;7.03;6.43;;;5.10;99.90;;;;;;5057839;28;20211;-73
2022/04/29 03:19:01;;;;;;;6.67;6.07;;;5.00;99.90;;;;;;5063237;28;20221;-73
2022/04/29 03:21:28;;;;;;;6.83;6.23;;;4.90;99.90;;;;;;5060834;28;20212;-73
2022/04/29 03:23:53;;;;;;;7.33;6.73;;;4.90;99.90;;;;;;5053768;28;20710;-73
2022/04/29 03:26:19;;;;;;;8.63;6.70;;;4.90;99.90;;;;;;5051089;28;20330;-74
2022/04/29 03:28:45;;;;;;;7.13;6.47;;;4.90;99.90;;;;;;5055184;28;20546;-73
2022/04/29 03:31:10;;;;;;;7.50;6.70;;;4.90;99.90;;;;;;5050829;28;20575;-73
2022/04/29 03:33:36;;;;;;;7.10;6.60;;;4.90;99.90;;;;;;5053151;28;20651;-73
2022/04/29 03:36:02;;;;;;;7.20;6.70;;;4.90;99.90;;;;;;5055504;28;20769;-73
2022/04/29 03:38:27;;;;;;;7.10;6.33;;;4.90;99.90;;;;;;5053086;28;20192;-73
2022/04/29 03:40:53;;;;;;;6.90;6.30;;;4.90;99.90;;;;;;5054359;28;20245;-73
2022/04/29 03:43:20;;;;;;;7.30;6.70;;;5.00;99.90;;;;;;5050029;28;20198;-73
2022/04/29 03:45:46;;;;;;;7.90;7.10;;;4.90;99.90;;;;;;5049040;28;20222;-73
2022/04/29 03:48:12;;;;;;;6.87;6.27;;;4.90;99.90;;;;;;5054770;28;20184;-73
2022/04/29 03:50:38;;;;;;;6.63;6.03;;;4.90;99.90;;;;;;5055833;28;20458;-73
2022/04/29 03:53:05;;;;;;;6.90;6.30;;;4.90;99.90;;;;;;5057556;28;20175;-74
2022/04/29 03:55:32;;;;;;;6.73;6.13;;;4.90;99.90;;;;;;5053184;28;20231;-74
2022/04/29 03:57:59;;;;;;;7.27;6.67;;;4.80;99.90;;;;;;5051354;28;20188;-73
2022/04/29 04:00:31;;;;;;;7.00;6.47;;;4.80;99.90;;;;;;5056450;28;20640;-73
2022/04/29 04:03:00;;;;;;;9.37;6.60;;;4.80;99.90;;;;;;5053741;28;20260;-73
2022/04/29 04:05:26;;;;;;;7.57;6.97;;;4.80;99.90;;;;;;5058063;28;20669;-73
2022/04/29 04:07:52;;;;;;;7.07;6.50;;;4.80;99.90;;;;;;5061420;28;20203;-73
2022/04/29 04:10:17;;;;;;;7.30;6.60;;;4.90;99.90;;;;;;5049608;28;20203;-74
2022/04/29 04:12:51;;;;;;;6.73;6.13;;;4.90;99.90;;;;;;5051591;28;20593;-74
2022/04/29 04:15:19;;;;;;;7.00;6.20;;;4.80;99.90;;;;;;5051772;28;20282;-73
2022/04/29 04:17:46;;;;;;;7.63;6.27;;;4.80;99.90;;;;;;5049749;28;20180;-73
2022/04/29 04:20:13;;;;;;;7.10;6.40;;;4.90;99.90;;;;;;5056598;28;20191;-75
2022/04/29 04:22:39;;;;;;;6.63;5.93;;;5.00;99.90;;;;;;5057959;28;20274;-75
2022/04/29 04:25:06;;;;;;;6.60;6.10;;;5.00;99.90;;;;;;5056802;28;20287;-74
2022/04/29 04:27:32;;;;;;;6.70;6.10;;;5.00;99.90;;;;;;5048706;28;20172;-74
2022/04/29 04:29:59;;;;;;;7.30;6.60;;;5.10;99.90;;;;;;5047705;28;20801;-74
2022/04/29 04:32:26;;;;;;;6.13;5.63;;;5.10;99.90;;;;;;5052299;28;20655;-74
2022/04/29 04:34:58;;;;;;;7.60;6.90;;;5.20;99.90;;;;;;5050374;28;20200;-73
2022/04/29 04:37:25;;;;;;;7.53;6.83;;;5.10;99.90;;;;;;5053982;28;20233;-73
2022/04/29 04:39:51;;;;;;;7.03;6.43;;;5.10;99.90;;;;;;5039184;28;20180;-73
2022/04/29 04:42:17;;;;;;;7.07;6.47;;;5.10;99.90;;;;;;5042514;28;20196;-73
2022/04/29 04:44:46;;;;;;;7.37;6.70;;;5.20;99.90;;;;;;5039925;28;20258;-73
2022/04/29 04:47:12;;;;;;;7.87;7.17;;;5.30;99.90;;;;;;5039734;28;20173;-73
2022/04/29 04:49:38;;;;;;;7.70;7.03;;;5.30;99.90;;;;;;5049402;28;20542;-72
2022/04/29 04:52:04;;;;;;;6.83;6.20;;;5.40;99.90;;;;;;5051847;28;20183;-73
2022/04/29 04:54:30;;;;;;;7.03;6.33;;;5.50;99.90;;;;;;5050509;28;20587;-75
2022/04/29 04:56:55;;;;;;;7.90;7.10;;;5.60;99.90;;;;;;5045554;28;20287;-74
2022/04/29 04:59:21;;;;;;;7.20;6.60;;;5.60;99.90;;;;;;5055121;28;20190;-74
2022/04/29 05:01:46;;;;;;;7.83;6.83;;;5.70;99.90;;;;;;5047689;28;20179;-75
2022/04/29 05:04:12;;;;;;;7.20;6.60;;;5.80;99.90;;;;;;5043588;28;20176;-75
2022/04/29 05:06:37;;;;;;;6.90;6.20;;;5.80;99.90;;;;;;5039225;28;20581;-74
2022/04/29 05:09:07;;;;;;;7.67;6.30;;;6.00;99.90;;;;;;5050153;28;20184;-75
2022/04/29 05:11:33;;;;;;;7.50;6.80;;;6.10;99.90;;;;;;5053767;28;20180;-73
2022/04/29 05:13:59;;;;;;;7.00;6.50;;;6.20;99.90;;;;;;5051312;28;20181;-75
2022/04/29 05:16:26;;;;;;;9.17;6.70;;;6.30;99.90;;;;;;5047218;28;20291;-74
2022/04/29 05:18:52;;;;;;;6.93;6.27;;;6.30;99.90;;;;;;5043485;28;20231;-75
2022/04/29 05:21:17;;;;;;;7.83;6.70;;;6.40;99.90;;;;;;5043564;28;20654;-76
2022/04/29 05:23:43;;;;;;;6.77;6.10;;;6.50;99.90;;;;;;5045002;28;20210;-74
2022/04/29 05:26:10;;;;;;;6.83;6.23;;;6.60;99.90;;;;;;5059465;28;20233;-77
2022/04/29 05:28:36;;;;;;;7.37;6.57;;;6.70;99.90;;;;;;5058258;28;20160;-75
2022/04/29 05:31:03;;;;;;;7.43;6.83;;;6.80;99.90;;;;;;5054497;28;20184;-75
2022/04/29 05:33:31;;;;;;;9.07;7.10;;;6.90;99.90;;;;;;5056727;28;20195;-75
2022/04/29 05:35:57;;;;;;;7.60;6.93;;;7.00;99.90;;;;;;5036391;28;20566;-75
2022/04/29 05:38:23;;;;;;;8.53;6.63;;;7.10;99.90;;;;;;5052151;28;20184;-76
2022/04/29 05:43:33;;;;;;;7.37;6.87;;;7.30;99.90;;;;;;5057934;28;20229;-78
2022/04/29 05:45:59;;;;;;;7.23;6.53;;;7.50;99.90;;;;;;5063232;28;20219;-77
2022/04/29 05:48:24;;;;;;;7.07;6.57;;;7.70;99.90;;;;;;5052381;28;20172;-78
2022/04/29 05:50:50;;;;;;;7.53;6.18;;;7.80;99.90;;;;;;5057847;28;20172;-78
2022/04/29 05:53:15;;;;;;;6.75;6.15;;;8.00;99.90;;;;;;5062765;28;20184;-78
2022/04/29 05:55:42;;;;;;;6.68;6.18;;;8.30;99.90;;;;;;5049665;28;20237;-77
2022/04/29 05:58:08;;;;;;;6.38;5.78;;;8.50;99.90;;;;;;5043561;28;20453;-77
2022/04/29 06:00:34;;;;;;;7.25;5.93;;;8.70;99.90;;;;;;5045970;28;20186;-77
2022/04/29 06:03:00;;;;;;;9.15;6.47;;;8.80;99.90;;;;;;5051331;28;20177;-79
2022/04/29 06:05:26;;;;;;;6.28;5.70;;;8.90;99.90;;;;;;5049155;28;20700;-78
2022/04/29 06:07:52;;;;;;;6.50;5.93;;;9.00;99.90;;;;;;5050591;28;20589;-78
2022/04/29 06:10:19;;;;;;;6.50;6.00;;;9.20;99.90;;;;;;5054601;28;20176;-77
2022/04/29 06:12:46;;;;;;;6.22;5.82;;;9.30;99.90;;;;;;5048468;28;20171;-77
2022/04/29 06:15:16;;;;;;;5.78;5.25;;;9.50;99.90;;;;;;5051736;28;20201;-78
2022/04/29 06:17:43;;;;;;;9.82;6.65;;;9.60;99.90;;;;;;5047757;28;20653;-77
2022/04/29 06:20:10;;;;;;;6.40;5.65;;;10.00;99.90;;;;;;5052711;28;20188;-79
2022/04/29 06:22:42;;;;;;;5.95;5.45;;;10.20;99.90;;;;;;5054072;28;20204;-78
2022/04/29 06:25:08;;;;;;;7.63;5.72;;;10.50;99.90;;;;;;5026878;28;20224;-78
2022/04/29 06:27:33;;;;;;;6.50;5.95;;;10.80;99.90;;;;;;5030656;28;20180;-78
2022/04/29 06:29:59;;;;;;;5.38;4.88;;;11.00;99.90;;;;;;5062238;28;20254;-78
2022/04/29 06:32:25;;;;;;;5.65;5.28;;;11.20;99.90;;;;;;5061080;28;20180;-78
2022/04/29 06:34:50;;;;;;;6.65;6.15;;;11.30;99.90;;;;;;5050879;28;20195;-78
2022/04/29 06:37:17;;;;;;;5.38;5.07;;;11.40;99.90;;;;;;5053999;28;20176;-80
2022/04/29 06:39:43;;;;;;;6.40;5.10;;;11.60;99.90;;;;;;5048276;28;20201;-84
2022/04/29 06:42:09;;;;;;;6.88;6.28;;;11.70;99.90;;;;;;5048519;28;20188;-78
2022/04/29 06:44:34;;;;;;;5.72;5.22;;;11.80;99.90;;;;;;5046916;28;20300;-78
2022/04/29 06:47:00;;;;;;;6.75;6.25;;;11.80;99.90;;;;;;5046113;28;20176;-74
2022/04/29 06:49:25;;;;;;;5.80;5.30;;;11.80;99.90;;;;;;5048558;28;20172;-76
2022/04/29 06:51:51;;;;;;;6.32;5.82;;;11.90;99.90;;;;;;5045784;28;20545;-76
2022/04/29 06:54:17;;;;;;;5.72;5.18;;;11.90;99.90;;;;;;5045804;28;20229;-76
2022/04/29 06:56:42;;;;;;;6.68;6.00;;;12.10;99.90;;;;;;5046247;28;20665;-77
2022/04/29 06:59:08;;;;;;;6.95;6.40;;;12.30;99.90;;;;;;5056385;28;20184;-78
2022/04/29 07:01:33;;;;;;;6.60;5.78;;;12.40;99.90;;;;;;5053406;28;20269;-77
2022/04/29 07:03:59;;;;;;;6.13;5.53;;;12.50;99.90;;;;;;5039510;28;20192;-77
2022/04/29 07:06:25;;;;;;;7.28;5.53;;;12.70;99.90;;;;;;5049867;28;20321;-77
2022/04/29 07:08:51;;;;;;;6.38;5.85;;;12.90;99.90;;;;;;5050159;28;20815;-77
2022/04/29 07:11:17;;;;;;;6.35;5.75;;;12.90;99.90;;;;;;5045199;28;20273;-77
2022/04/29 07:13:43;;;;;;;6.10;5.60;;;13.00;99.90;;;;;;5043388;28;20682;-77
2022/04/29 07:16:09;;;;;;;6.35;5.75;;;13.20;99.90;;;;;;5041014;28;20600;-77
2022/04/29 07:18:36;;;;;;;9.40;6.13;;;13.40;99.90;;;;;;5042528;28;20173;-77
2022/04/29 07:21:02;;;;;;;7.68;6.63;;;13.50;99.90;;;;;;5046336;28;20180;-78
2022/04/29 07:23:28;;;;;;;6.32;5.72;;;13.70;99.90;;;;;;5049365;28;20713;-77
2022/04/29 07:25:54;;;;;;;6.88;5.40;;;13.80;99.90;;;;;;5041014;28;20228;-78
2022/04/29 07:28:21;;;;;;;6.18;5.68;;;13.90;99.90;;;;;;5041861;28;20227;-77
2022/04/29 07:30:47;;;;;;;7.00;6.30;;;14.00;99.90;;;;;;5046496;28;20212;-77
2022/04/29 07:33:12;;;;;;;6.97;5.78;;;14.00;99.90;;;;;;5041101;28;20171;-77
2022/04/29 07:43:53;;;;;;;9.50;5.80;;;14.10;99.90;;;;;;5046435;28;20195;-77
2022/04/29 07:46:21;;;;;;;8.75;6.40;;;14.20;99.90;;;;;;5042004;28;20599;-77
2022/04/29 07:48:47;;;;;;;8.30;6.10;;;14.30;99.90;;;;;;5046767;28;20173;-77
2022/04/29 07:51:13;;;;;;;6.85;5.65;;;14.50;99.90;;;;;;5027626;28;20181;-77
2022/04/29 07:53:38;;;;;;;7.30;5.93;;;14.60;99.90;;;;;;5046658;28;20183;-76
2022/04/29 07:56:05;;;;;;;6.00;5.60;;;14.70;99.90;;;;;;5042705;28;20299;-75
2022/04/29 07:58:31;;;;;;;6.07;5.47;;;14.80;99.90;;;;;;5043283;28;20192;-76
2022/04/29 08:00:57;;;;;;;6.53;5.90;;;14.70;99.90;;;;;;5044313;28;20646;-77
2022/04/29 08:03:23;;;;;;;6.72;6.00;;;14.90;99.90;;;;;;5046589;28;20292;-74
2022/04/29 08:05:50;;;;;;;7.57;5.85;;;15.10;99.90;;;;;;5040539;28;20690;-75
2022/04/29 08:08:16;;;;;;;8.02;6.40;;;15.10;99.90;;;;;;5045216;28;20859;-75
2022/04/29 08:10:42;;;;;;;7.15;6.40;;;15.20;99.90;;;;;;5043351;28;20232;-75
2022/04/29 08:13:07;;;;;;;7.75;5.50;;;15.20;99.90;;;;;;5042636;28;20180;-75
2022/04/29 08:15:33;;;;;;;8.80;5.50;;;15.30;99.90;;;;;;5046666;28;20689;-75
2022/04/29 08:17:59;;;;;;;6.25;5.80;;;15.40;99.90;;;;;;5052151;28;20665;-76
2022/04/29 08:20:25;;;;;;;5.60;5.20;;;15.50;99.90;;;;;;5039907;28;20774;-76
2022/04/29 08:22:51;;;;;;;6.40;5.90;;;15.60;99.90;;;;;;5054602;28;20185;-77
2022/04/29 08:25:20;;;;;;;6.60;5.50;;;15.70;99.90;;;;;;5042901;28;20298;-80
2022/04/29 08:27:47;;;;;;;6.03;5.53;;;15.80;99.90;;;;;;5048888;28;20505;-79
2022/04/29 08:30:13;;;;;;;5.63;5.22;;;15.90;99.90;;;;;;5057510;28;20212;-79
2022/04/29 08:32:43;;;;;;;6.80;5.13;;;15.90;99.90;;;;;;5058242;28;20183;-79
2022/04/29 08:35:10;;;;;;;7.95;6.53;;;16.00;99.90;;;;;;5060386;28;20207;-79
2022/04/29 08:37:40;;;;;;;6.63;5.65;;;16.10;99.90;;;;;;5062014;28;20184;-79
2022/04/29 08:40:07;;;;;;;6.10;5.35;;;16.10;99.90;;;;;;5039394;28;20183;-78
2022/04/29 08:42:38;;;;;;;7.03;5.30;;;16.30;99.90;;;;;;5057138;28;20184;-77
2022/04/29 08:45:15;;;;;;;5.60;5.15;;;16.30;99.90;;;;;;5057082;28;20209;-80
2022/04/29 08:47:43;;;;;;;5.32;4.93;;;16.30;99.90;;;;;;5064508;28;20193;-74
2022/04/29 08:50:15;;;;;;;6.63;5.75;;;16.40;99.90;;;;;;5051168;28;20419;-75
2022/04/29 08:52:41;;;;;;;5.65;5.15;;;16.40;99.10;;;;;;5037143;28;20195;-74
2022/04/29 09:00:38;;;;;;;5.88;5.38;;;16.80;99.90;;;;;;5051727;28;20252;-75
2022/04/29 09:03:06;;;;;;;6.05;4.78;;;17.10;99.90;;;;;;5056062;28;20186;-78
2022/04/29 09:05:32;;;;;;;7.80;5.93;;;17.30;99.30;;;;;;5047816;28;20219;-75
2022/04/29 09:08:02;;;;;;;5.45;4.75;;;17.60;99.90;;;;;;5041981;28;20186;-75
2022/04/29 09:10:34;;;;;;;5.40;4.85;;;17.90;99.90;;;;;;5048255;28;20183;-75
2022/04/29 09:13:20;;;;;;;6.07;4.93;;;18.30;99.90;;;;;;5055415;28;20842;-74
2022/04/29 09:15:57;;;;;;;6.20;4.35;;;18.60;97.30;;;;;;5051569;28;20203;-75
2022/04/29 09:18:41;;;;;;;8.15;4.72;;;19.90;95.60;;;;;;5061761;28;20202;-74
2022/04/29 09:21:12;;;;;;;4.22;3.88;;;22.90;91.90;;;;;;5049061;28;20187;-75
2022/04/29 09:23:41;;;;;;;4.20;3.90;;;24.90;63.30;;;;;;5055863;28;20203;-75
2022/04/29 09:26:07;;;;;;;3.70;3.35;;;26.00;58.10;;;;;;5046999;28;20199;-74
2022/04/29 09:28:34;;;;;;;4.22;3.92;;;27.50;53.20;;;;;;5058872;28;20267;-75
2022/04/29 09:31:00;;;;;;;3.90;3.60;;;28.80;48.50;;;;;;5058388;28;20262;-75
2022/04/29 09:33:27;;;;;;;3.90;3.65;;;29.80;45.20;;;;;;5049155;28;20208;-75
2022/04/29 09:35:54;;;;;;;3.80;3.50;;;30.40;43.80;;;;;;5050003;28;20214;-75
2022/04/29 09:41:05;;;;;;;3.72;3.47;;;32.00;42.50;;;;;;5041584;28;20242;-75
2022/04/29 09:43:45;;;;;;;4.25;3.78;;;32.70;43.20;;;;;;5055601;28;20562;-73
2022/04/29 09:46:11;;;;;;;3.65;3.45;;;33.90;40.50;;;;;;5051990;28;20260;-73
2022/04/29 09:48:56;;;;;;;3.97;3.67;;;33.70;40.50;;;;;;5052339;28;20190;-73
2022/04/29 09:51:47;;;;;;;3.92;3.63;;;33.70;38.80;;;;;;5054875;28;20183;-73
2022/04/29 09:54:18;;;;;;;3.60;3.30;;;34.10;38.00;;;;;;5041516;28;20319;-72
2022/04/29 09:56:46;;;;;;;4.00;3.70;;;34.00;37.70;;;;;;5050431;28;20203;-72
2022/04/29 09:59:12;;;;;;;4.00;3.67;;;34.10;36.80;;;;;;5050005;28;20293;-76
2022/04/29 10:01:38;;;;;;;2.88;2.75;;;33.90;36.60;;;;;;5058656;28;20183;-76
2022/04/29 10:04:04;;;;;;;4.03;3.55;;;33.90;36.40;;;;;;5058816;28;20178;-76
2022/04/29 10:06:32;;;;;;;3.90;3.60;;;34.20;36.40;;;;;;5049776;28;20211;-76
2022/04/29 10:08:59;;;;;;;3.47;3.25;;;34.40;35.40;;;;;;5045011;28;20211;-75
2022/04/29 10:11:27;;;;;;;3.63;3.42;;;34.10;35.80;;;;;;5038788;28;20649;-75
2022/04/29 10:13:53;;;;;;;3.58;3.28;;;34.30;36.70;;;;;;5052690;28;20173;-76
2022/04/29 10:16:20;;;;;;;3.60;3.30;;;34.20;35.10;;;;;;5050644;28;20238;-76
2022/04/29 10:21:43;;;;;;;3.20;3.00;;;36.00;30.90;;;;;;5053799;28;20680;-76
2022/04/29 10:24:09;;;;;;;2.97;2.78;;;36.20;32.50;;;;;;5057227;28;20196;-76
2022/04/29 10:26:35;;;;;;;4.15;3.17;;;36.20;32.30;;;;;;5058304;28;20211;-75
2022/04/29 10:29:02;;;;;;;4.00;3.33;;;35.60;33.30;;;;;;5055373;28;20219;-76
2022/04/29 10:31:29;;;;;;;3.65;3.45;;;36.10;33.80;;;;;;5038253;28;20673;-76
2022/04/29 10:34:14;;;;;;;3.28;3.00;;;36.50;32.80;;;;;;5039069;28;20175;-74
2022/04/29 10:36:46;;;;;;;3.70;3.40;;;36.50;33.50;;;;;;5042059;28;20208;-74
2022/04/29 10:39:18;;;;;;;2.85;2.65;;;36.70;32.60;;;;;;5039395;28;20693;-74
2022/04/29 10:42:02;;;;;;;3.17;3.03;;;36.50;33.10;;;;;;5042029;28;20578;-74
2022/04/29 10:44:28;;;;;;;3.03;2.83;;;37.20;31.50;;;;;;5040519;28;20237;-75
2022/04/29 10:46:54;;;;;;;3.50;3.30;;;37.90;30.70;;;;;;5037454;28;20306;-75
2022/04/29 10:49:27;;;;;;;5.53;3.72;;;37.30;31.00;;;;;;5041124;28;20693;-75
2022/04/29 10:51:58;;;;;;;4.30;3.40;;;35.90;32.10;;;;;;5052401;28;20180;-75
2022/04/29 10:54:33;;;;;;;3.88;3.58;;;35.80;33.20;;;;;;5054415;28;20546;-75
2022/04/29 10:57:12;;;;;;;3.20;3.00;;;36.50;32.90;;;;;;5044660;28;20575;-75
2022/04/29 10:59:57;;;;;;;3.20;3.00;;;37.70;32.40;;;;;;5053697;28;20675;-74
2022/04/29 11:02:32;;;;;;;3.25;3.05;;;37.80;31.90;;;;;;5056659;28;20191;-75
2022/04/29 11:05:02;;;;;;;3.63;3.33;;;38.30;31.70;;;;;;5038631;28;20274;-74
2022/04/29 11:07:43;;;;;;;2.95;2.85;;;38.70;29.70;;;;;;5040753;28;20239;-75
2022/04/29 11:10:14;;;;;;;3.15;2.95;;;37.70;31.90;;;;;;5043836;28;20183;-74
2022/04/29 11:12:42;;;;;;;3.72;3.53;;;37.40;31.90;;;;;;5045509;28;20685;-75
2022/04/29 11:15:23;;;;;;;3.70;3.40;;;36.70;30.70;;;;;;5044052;28;20239;-75
2022/04/29 11:17:49;;;;;;;3.38;3.17;;;35.40;32.80;;;;;;5038521;28;20175;-74
2022/04/29 11:20:25;;;;;;;3.78;3.47;;;34.10;33.60;;;;;;5029944;28;20179;-74
2022/04/29 11:25:58;;;;;;;3.50;3.22;;;35.10;33.20;;;;;;5045529;28;20233;-75
2022/04/29 11:28:25;;;;;;;3.50;3.20;;;35.80;33.20;;;;;;5052311;28;20179;-75
2022/04/29 11:31:00;;;;;;;3.13;2.92;;;37.20;30.40;;;;;;5063299;28;20261;-74
2022/04/29 11:33:26;;;;;;;3.50;3.30;;;37.00;30.00;;;;;;5064354;28;20204;-74
2022/04/29 11:36:01;;;;;;;4.85;3.08;;;37.00;30.00;;;;;;5045693;28;20207;-75
2022/04/29 11:38:29;;;;;;;3.35;3.15;;;36.60;31.30;;;;;;5042460;28;20187;-71
2022/04/29 11:40:55;;;;;;;3.90;3.25;;;36.50;31.60;;;;;;5043013;28;20199;-71
2022/04/29 11:43:24;;;;;;;3.17;2.88;;;34.90;33.10;;;;;;5040212;28;20214;-71
2022/04/29 11:46:00;;;;;;;3.28;3.05;;;35.30;33.20;;;;;;5043905;28;20242;-73
2022/04/29 11:48:25;;;;;;;3.95;3.55;;;35.60;33.00;;;;;;5051427;28;20167;-73
2022/04/29 11:50:51;;;;;;;3.15;2.90;;;36.00;33.00;;;;;;5053648;28;20175;-75
2022/04/29 11:53:17;;;;;;;4.93;3.67;;;36.50;33.00;;;;;;5056626;28;20205;-74
2022/04/29 11:55:49;;;;;;;5.38;3.75;;;37.50;31.50;;;;;;5047451;28;20551;-73
2022/04/29 11:58:16;;;;;;;3.40;3.20;;;37.20;31.30;;;;;;5045157;28;20562;-74
2022/04/29 12:00:56;;;;;;;3.30;3.10;;;36.70;31.90;;;;;;5038558;28;20187;-75
2022/04/29 12:03:23;;;;;;;3.55;3.25;;;36.80;32.40;;;;;;5036663;28;20171;-74
2022/04/29 12:05:49;;;;;;;3.25;3.00;;;36.60;31.80;;;;;;5043105;28;20239;-70
2022/04/29 12:08:16;;;;;;;3.60;3.40;;;36.10;32.20;;;;;;5045900;28;20184;-70
2022/04/29 12:10:44;;;;;;;4.05;3.40;;;35.50;32.00;;;;;;5047451;28;20174;-71
2022/04/29 12:13:10;;;;;;;4.00;3.47;;;35.50;33.10;;;;;;5044765;28;20282;-71
2022/04/29 12:15:39;;;;;;;4.70;3.00;;;35.50;31.80;;;;;;5043686;28;20235;-72
2022/04/29 12:18:13;;;;;;;4.00;3.40;;;35.60;32.20;;;;;;5027620;28;20198;-70
2022/04/29 12:20:39;;;;;;;4.32;3.42;;;36.10;30.40;;;;;;5047067;28;20658;-72
2022/04/29 12:23:19;;;;;;;3.60;3.30;;;35.50;32.70;;;;;;5041602;28;20187;-72
2022/04/29 12:25:46;;;;;;;3.92;3.60;;;34.20;32.80;;;;;;5024591;28;20199;-77
2022/04/29 12:28:19;;;;;;;4.13;3.83;;;33.30;33.70;;;;;;5044341;28;20250;-74
2022/04/29 12:36:46;;;;;;;4.05;3.40;;;34.50;32.10;;;;;;5047428;28;20205;-72
2022/04/29 12:39:13;;;;;;;4.50;4.10;;;35.00;31.10;;;;;;5044687;28;20900;-70
2022/04/29 12:41:38;;;;;;;2.97;2.88;;;33.90;32.00;;;;;;5049576;28;20183;-70
2022/04/29 12:46:56;;;;;;;3.10;2.88;;;34.50;33.30;;;;;;5051235;28;20303;-69
2022/04/29 12:49:22;;;;;;;3.78;3.20;;;35.10;32.30;;;;;;5052598;28;20215;-71
2022/04/29 12:51:59;;;;;;;2.90;2.70;;;35.20;32.90;;;;;;5051423;28;20651;-71
2022/04/29 12:54:26;;;;;;;3.15;2.88;;;36.00;32.20;;;;;;5044519;28;20570;-70
2022/04/29 12:56:52;;;;;;;2.60;2.50;;;35.60;32.20;;;;;;5041566;28;20277;-70
2022/04/29 12:59:22;;;;;;;3.38;3.17;;;35.90;32.10;;;;;;5039428;28;20690;-71
2022/04/29 13:01:48;;;;;;;6.78;2.55;;;35.80;31.90;;;;;;5038321;28;20179;-71
2022/04/29 13:04:14;;;;;;;3.00;2.60;;;36.60;32.80;;;;;;5046521;28;20197;-70
2022/04/29 13:06:39;;;;;;;3.22;3.03;;;37.90;31.60;;;;;;5047505;28;20210;-69
2022/04/29 13:09:05;;;;;;;2.83;2.63;;;38.60;30.90;;;;;;5050917;28;20187;-70
2022/04/29 13:11:32;;;;;;;3.45;3.15;;;40.00;29.80;;;;;;5045357;28;20177;-71
2022/04/29 13:13:58;;;;;;;3.63;3.28;;;42.40;28.40;;;;;;5045612;28;20176;-71
2022/04/29 13:16:24;;;;;;;3.00;2.85;;;40.80;28.60;;;;;;5048498;28;20207;-70
2022/04/29 13:18:50;;;;;;;2.92;2.63;;;40.90;28.20;;;;;;5048766;28;20641;-70
2022/04/29 13:21:16;;;;;;;3.33;3.13;;;40.80;29.50;;;;;;5029807;28;20187;-69
2022/04/29 13:23:44;;;;;;;2.90;2.75;;;41.00;28.70;;;;;;5043529;28;20179;-69
2022/04/29 13:26:13;;;;;;;4.30;3.17;;;40.60;28.70;;;;;;5040712;28;20218;-70
2022/04/29 13:28:39;;;;;;;2.80;2.55;;;39.60;28.50;;;;;;5046259;28;20175;-69